Time;durP1;ratioP1;P1;durP2;ratioP2;P2;SDS_P1;SDS_P2;PMS_P1;PMS_P2;Temp;Humidity;BMP_temperature;BMP_pressure;BME280_temperature;BME280_humidity;BME280_pressure;Samples;Min_cycle;Max_cycle;Signal;HPM_P1;HPM_P2
2021/01/06 20:09:33;;;;;;;0.30;0.20;;;;;;;3.28;100.00;100050.72;5088474;27;20572;-51
2021/01/06 20:11:59;;;;;;;0.30;0.20;;;;;;;3.48;100.00;100047.16;5067189;28;20503;-51
2021/01/06 20:14:25;;;;;;;0.30;0.20;;;;;;;3.67;100.00;100048.81;5059601;28;20459;-52
2021/01/06 20:16:52;;;;;;;0.30;0.23;;;;;;;3.67;100.00;100046.19;5070116;28;20454;-51
2021/01/06 20:19:19;;;;;;;0.30;0.20;;;;;;;3.71;100.00;100050.56;5069687;28;20446;-51
2021/01/06 20:21:45;;;;;;;0.30;0.20;;;;;;;3.75;100.00;100049.66;5069760;28;20481;-51
2021/01/06 20:24:11;;;;;;;0.30;0.20;;;;;;;3.90;100.00;100053.09;5069832;28;20450;-52
2021/01/06 20:26:38;;;;;;;0.30;0.20;;;;;;;3.98;100.00;100054.81;5062460;28;21372;-51
2021/01/06 20:29:06;;;;;;;0.30;0.20;;;;;;;3.94;99.99;100050.44;5069578;28;20485;-51
2021/01/06 20:31:42;;;;;;;0.30;0.10;;;;;;;3.96;100.00;100053.91;5068813;28;20480;-51
2021/01/06 20:34:09;;;;;;;0.30;0.20;;;;;;;4.16;99.48;100048.56;5069091;28;20450;-51
2021/01/06 20:36:35;;;;;;;0.20;0.20;;;;;;;4.03;99.40;100047.75;5069761;28;20496;-51
2021/01/06 20:39:03;;;;;;;0.20;0.20;;;;;;;4.11;100.00;100056.47;5069131;28;20450;-51
2021/01/06 20:41:31;;;;;;;0.30;0.20;;;;;;;3.99;100.00;100053.06;5062880;28;20854;-55
2021/01/06 20:43:57;;;;;;;0.20;0.20;;;;;;;3.98;100.00;100053.94;5051975;28;20480;-52
2021/01/06 20:46:27;;;;;;;0.30;0.13;;;;;;;3.87;100.00;100056.63;5069011;28;20456;-52
2021/01/06 20:48:53;;;;;;;2.53;2.33;;;;;;;3.81;100.00;100059.25;5069156;28;20496;-52
2021/01/06 20:51:20;;;;;;;0.30;0.20;;;;;;;3.70;100.00;100055.81;5068802;28;20465;-52
2021/01/06 20:53:46;;;;;;;0.30;0.20;;;;;;;3.74;100.00;100055.81;5068627;28;20916;-52
2021/01/06 20:56:13;;;;;;;0.30;0.20;;;;;;;3.74;100.00;100053.19;5050450;28;20788;-51
2021/01/06 20:58:40;;;;;;;0.30;0.10;;;;;;;3.63;100.00;100052.34;5061062;28;20451;-51
2021/01/06 21:01:06;;;;;;;0.30;0.17;;;;;;;3.65;100.00;100050.56;5056229;28;20466;-52
2021/01/06 21:03:32;;;;;;;0.30;0.20;;;;;;;3.84;100.00;100047.00;5064732;28;20480;-52
2021/01/06 21:05:58;;;;;;;0.30;0.20;;;;;;;3.59;100.00;100049.75;5068261;28;20450;-52
2021/01/06 21:08:24;;;;;;;0.30;0.13;;;;;;;3.52;100.00;100055.00;5068354;28;20489;-51
2021/01/06 21:10:51;;;;;;;0.30;0.20;;;;;;;3.49;100.00;100052.41;5067705;28;20473;-51
2021/01/06 21:13:17;;;;;;;0.30;0.20;;;;;;;3.51;100.00;100053.25;5065919;28;20456;-51
2021/01/06 21:15:43;;;;;;;0.20;0.10;;;;;;;3.53;100.00;100051.50;5058112;28;20459;-51
2021/01/06 21:18:09;;;;;;;0.30;0.20;;;;;;;3.54;100.00;100052.38;5064832;28;20458;-52
2021/01/06 21:20:35;;;;;;;0.20;0.20;;;;;;;3.47;100.00;100046.28;5057060;28;20470;-51
2021/01/06 21:23:01;;;;;;;0.20;0.10;;;;;;;3.49;100.00;100052.41;5055274;28;20474;-52
2021/01/06 21:25:28;;;;;;;0.20;0.20;;;;;;;3.49;100.00;100051.53;5055449;28;20438;-51
2021/01/06 21:27:54;;;;;;;0.30;0.20;;;;;;;3.52;100.00;100046.25;5049583;28;21008;-51
2021/01/06 21:30:20;;;;;;;0.20;0.20;;;;;;;3.42;100.00;100048.03;5046072;28;20467;-54
2021/01/06 21:32:47;;;;;;;10.50;9.40;;;;;;;3.43;100.00;100055.06;5055040;28;20473;-51
2021/01/06 21:35:14;;;;;;;0.20;0.10;;;;;;;3.43;100.00;100048.94;5055246;28;20450;-51
2021/01/06 21:37:41;;;;;;;0.20;0.20;;;;;;;3.40;100.00;100048.94;5055194;28;20451;-51
2021/01/06 21:40:11;;;;;;;0.20;0.20;;;;;;;3.38;100.00;100051.56;5055194;28;20532;-51
2021/01/06 21:42:38;;;;;;;0.30;0.10;;;;;;;3.50;100.00;100048.03;5042607;28;20463;-52
2021/01/06 21:45:06;;;;;;;0.20;0.10;;;;;;;3.36;100.00;100050.69;5054690;28;20800;-52
2021/01/06 21:47:32;;;;;;;0.20;0.10;;;;;;;3.32;100.00;100054.22;5054542;28;20501;-52
2021/01/06 21:49:59;;;;;;;0.20;0.20;;;;;;;3.33;100.00;100055.09;5055060;28;20475;-52
2021/01/06 21:52:25;;;;;;;0.20;0.10;;;;;;;3.33;100.00;100049.84;5054453;28;20462;-52
2021/01/06 21:54:52;;;;;;;0.27;0.10;;;;;;;3.35;100.00;100056.84;5046106;28;20960;-52
2021/01/06 21:57:19;;;;;;;0.20;0.10;;;;;;;3.36;100.00;100047.19;5040543;28;20856;-52
2021/01/06 21:59:45;;;;;;;0.30;0.20;;;;;;;3.33;100.00;100049.84;5039827;28;20467;-52
2021/01/06 22:02:11;;;;;;;0.93;0.93;;;;;;;3.34;100.00;100054.22;5048306;28;20484;-51
2021/01/06 22:04:37;;;;;;;0.20;0.10;;;;;;;3.60;100.00;100049.75;5054646;28;20450;-52
2021/01/06 22:07:03;;;;;;;0.20;0.10;;;;;;;3.61;100.00;100048.84;5026330;28;20447;-52
2021/01/06 22:09:30;;;;;;;0.30;0.20;;;;;;;3.60;100.00;100048.88;5052807;28;20491;-52
2021/01/06 22:11:56;;;;;;;0.20;0.10;;;;;;;3.68;100.00;100047.06;5050692;28;20471;-52
2021/01/06 22:14:22;;;;;;;0.20;0.10;;;;;;;3.61;100.00;100043.59;5053843;28;20940;-52
2021/01/06 22:16:55;;;;;;;0.20;0.20;;;;;;;3.62;100.00;100041.84;5039675;28;20463;-52
2021/01/06 22:19:24;;;;;;;0.20;0.20;;;;;;;3.66;100.00;100052.31;5054271;28;20477;-52
2021/01/06 22:21:50;;;;;;;0.20;0.10;;;;;;;3.54;100.00;100045.38;5054281;28;20538;-52
2021/01/06 22:24:16;;;;;;;0.30;0.20;;;;;;;3.46;100.00;100048.91;5053898;28;20447;-52
2021/01/06 22:26:43;;;;;;;0.20;0.20;;;;;;;3.63;100.00;100049.72;5054084;28;20447;-52
2021/01/06 22:29:09;;;;;;;0.20;0.20;;;;;;;3.53;100.00;100048.00;5054939;28;20501;-53
2021/01/06 22:31:39;;;;;;;0.20;0.20;;;;;;;3.71;100.00;100042.69;5047275;28;20537;-51
2021/01/06 22:34:06;;;;;;;0.23;0.20;;;;;;;3.55;100.00;100036.59;5049142;28;20442;-52
2021/01/06 22:36:33;;;;;;;0.30;0.20;;;;;;;3.53;100.00;100040.13;5054890;28;20457;-52
2021/01/06 22:39:00;;;;;;;0.20;0.20;;;;;;;3.57;100.00;100034.00;5054491;28;20447;-51
2021/01/06 22:41:27;;;;;;;0.20;0.20;;;;;;;3.45;100.00;100037.53;5047920;28;20476;-52
2021/01/06 22:43:53;;;;;;;0.20;0.10;;;;;;;3.52;100.00;100027.88;5049252;28;20450;-52
2021/01/06 22:46:21;;;;;;;0.23;0.10;;;;;;;3.54;100.00;100028.72;5054020;28;20446;-52
2021/01/06 22:48:48;;;;;;;0.20;0.20;;;;;;;3.43;100.00;100027.94;5045662;28;20506;-52
2021/01/06 22:51:22;;;;;;;0.20;0.10;;;;;;;3.37;100.00;100020.03;5053560;28;20471;-52
2021/01/06 22:53:50;;;;;;;0.20;0.10;;;;;;;3.39;100.00;100027.03;5053338;28;20454;-53
2021/01/06 22:56:26;;;;;;;0.20;0.20;;;;;;;3.43;100.00;100020.03;5024588;28;20822;-52
2021/01/06 22:58:52;;;;;;;0.20;0.20;;;;;;;3.44;100.00;100027.03;5052443;28;20516;-53
2021/01/06 23:01:18;;;;;;;0.20;0.10;;;;;;;3.54;100.00;100024.34;5048028;28;20890;-52
2021/01/06 23:03:44;;;;;;;0.20;0.10;;;;;;;3.49;100.00;100026.13;5052265;28;20443;-53
2021/01/06 23:06:11;;;;;;;0.20;0.17;;;;;;;3.60;100.00;100023.47;5047852;28;20481;-52
2021/01/06 23:08:37;;;;;;;0.20;0.20;;;;;;;3.59;100.00;100021.72;5052804;28;20838;-52
2021/01/06 23:11:03;;;;;;;0.30;0.30;;;;;;;3.72;100.00;100025.16;5050461;28;20466;-52
2021/01/06 23:13:29;;;;;;;0.30;0.30;;;;;;;3.69;100.00;100023.41;5052516;28;20494;-51
2021/01/06 23:15:55;;;;;;;0.20;0.20;;;;;;;3.61;100.00;100025.19;5053337;28;20450;-51
2021/01/06 23:18:21;;;;;;;0.20;0.20;;;;;;;3.54;100.00;100034.84;5053083;28;20442;-53
2021/01/06 23:20:47;;;;;;;0.20;0.10;;;;;;;3.72;100.00;100025.16;5040429;28;20522;-52
2021/01/06 23:23:13;;;;;;;0.20;0.10;;;;;;;3.65;100.00;100029.56;5036853;28;20975;-51
2021/01/06 23:25:40;;;;;;;0.20;0.20;;;;;;;3.69;100.00;100038.28;5052639;28;21317;-52
2021/01/06 23:28:06;;;;;;;0.20;0.10;;;;;;;3.63;100.00;100035.72;5052869;28;20483;-53
2021/01/06 23:30:32;;;;;;;0.20;0.20;;;;;;;3.56;100.00;100037.47;5052673;28;20471;-52
2021/01/06 23:32:58;;;;;;;0.20;0.10;;;;;;;3.66;100.00;100036.56;5052665;28;20450;-53
2021/01/06 23:35:24;;;;;;;0.50;0.50;;;;;;;3.67;100.00;100040.94;5052822;28;21185;-51
2021/01/06 23:37:50;;;;;;;0.30;0.20;;;;;;;3.69;100.00;100040.91;5048607;28;20446;-53
2021/01/06 23:40:16;;;;;;;0.30;0.30;;;;;;;3.65;100.00;100041.81;5045099;28;20971;-52
2021/01/06 23:42:43;;;;;;;0.20;0.10;;;;;;;3.63;100.00;100038.34;5041814;28;20944;-52
2021/01/06 23:45:11;;;;;;;0.20;0.17;;;;;;;3.82;100.00;100040.84;5052485;28;20451;-52
2021/01/06 23:47:37;;;;;;;0.20;0.20;;;;;;;3.63;100.00;100046.22;5052287;28;20451;-52
2021/01/06 23:50:04;;;;;;;0.60;0.60;;;;;;;3.57;100.00;100039.25;5052599;28;20470;-51
2021/01/06 23:52:30;;;;;;;0.20;0.20;;;;;;;3.60;100.00;100044.47;5052014;28;20817;-52
2021/01/06 23:54:56;;;;;;;0.20;0.10;;;;;;;3.49;100.00;100044.53;5041731;28;20467;-51
2021/01/06 23:57:22;;;;;;;0.20;0.10;;;;;;;3.64;100.00;100040.09;5026124;28;20446;-52
2021/01/06 23:59:49;;;;;;;0.20;0.17;;;;;;;3.71;100.00;100047.94;5052303;28;20853;-53
